Cheney Center, Colorado
Current Conditions -  °F | °C
As of 9:15 AM on Monday 22 Dec 2014 (Local Time) from K3K3 Reporting Station
Clear Clear  
Wind Chill: 34°   Ceiling: Unl
Heat Index: 43°   Visibility: 10mi
Dew Point: 32°   Wind: 20mph
Humidity: 66%   Direction: 340°NNW
Pressure: 29.75"   Gusts: 24mph
Location:  37.8253°N, 102.163°W
Report Text: K3K3 221615Z AUTO 34017G21KT 10SM CLR 06/00 A2975 RMK AO2
Loading
Personal Weather Stations






























Interactive Weather Map New forecast layout! Learn more

10-Day Weather Forecast

Advertisements
Track Severe Weather on mobile